Time;durP1;ratioP1;P1;durP2;ratioP2;P2;SDS_P1;SDS_P2;PMS_P1;PMS_P2;Temp;Humidity;BMP_temperature;BMP_pressure;BME280_temperature;BME280_humidity;BME280_pressure;Samples;Min_cycle;Max_cycle;Signal;HPM_P1;HPM_P2
2022/01/14 00:01:47;;;;;;;20.40;13.87;;;4.30;99.90;;;;;;5066253;28;20852;-40
2022/01/14 00:04:13;;;;;;;22.63;13.10;;;4.20;99.90;;;;;;5065048;28;20500;-42
2022/01/14 00:06:39;;;;;;;24.20;13.37;;;4.60;99.90;;;;;;5067974;28;20425;-40
2022/01/14 00:09:07;;;;;;;22.87;13.60;;;4.40;99.90;;;;;;5068837;28;20423;-40
2022/01/14 00:11:40;;;;;;;24.57;14.67;;;4.40;99.90;;;;;;5058847;28;20709;-39
2022/01/14 00:14:20;;;;;;;23.97;13.60;;;4.70;99.90;;;;;;5068119;28;20423;-40
2022/01/14 00:16:47;;;;;;;21.87;13.47;;;4.50;99.90;;;;;;5067938;28;20550;-39
2022/01/14 00:19:13;;;;;;;22.67;14.10;;;4.80;99.90;;;;;;5068209;28;20415;-40
2022/01/14 00:21:41;;;;;;;24.97;14.53;;;4.60;99.90;;;;;;5067261;28;20790;-40
2022/01/14 00:24:12;;;;;;;20.40;13.63;;;4.60;99.90;;;;;;5066907;28;20328;-40
2022/01/14 00:32:20;;;;;;;24.80;14.53;;;4.20;99.90;;;;;;5067639;28;20430;-40
2022/01/14 00:34:46;;;;;;;19.50;14.03;;;4.20;99.90;;;;;;5068005;28;20578;-40
2022/01/14 00:37:16;;;;;;;22.90;14.90;;;4.10;99.90;;;;;;5065871;28;20554;-40
2022/01/14 00:39:43;;;;;;;21.00;14.47;;;4.20;99.90;;;;;;5067342;28;20419;-40
2022/01/14 00:42:10;;;;;;;23.33;14.60;;;4.10;99.90;;;;;;5057796;28;20523;-40
2022/01/14 00:44:36;;;;;;;20.77;14.10;;;4.50;99.90;;;;;;5067315;28;20427;-39
2022/01/14 00:47:03;;;;;;;19.30;14.20;;;4.30;99.90;;;;;;5066404;28;20488;-40
2022/01/14 00:49:29;;;;;;;22.00;15.07;;;4.20;99.90;;;;;;5067280;28;20515;-40
2022/01/14 00:51:55;;;;;;;22.03;14.40;;;4.40;99.90;;;;;;5066842;28;20577;-40
2022/01/14 00:54:20;;;;;;;23.47;15.20;;;4.10;99.90;;;;;;5067371;28;20431;-39
2022/01/14 00:57:00;;;;;;;26.40;14.87;;;4.20;99.90;;;;;;5055349;28;20205;-39
2022/01/14 00:59:26;;;;;;;23.97;14.80;;;4.10;99.90;;;;;;5065973;28;20483;-39
2022/01/14 01:01:58;;;;;;;23.80;14.30;;;4.10;99.90;;;;;;5064741;28;20755;-39
2022/01/14 01:04:29;;;;;;;26.90;15.60;;;4.20;99.90;;;;;;5064768;28;20173;-40
2022/01/14 01:06:56;;;;;;;27.27;17.60;;;4.20;99.90;;;;;;5066476;28;20439;-40
2022/01/14 01:09:24;;;;;;;23.43;15.80;;;4.10;99.90;;;;;;5066438;28;20427;-40
2022/01/14 01:14:43;;;;;;;24.50;15.40;;;4.30;99.90;;;;;;5064922;28;20813;-40
2022/01/14 01:17:09;;;;;;;27.17;17.53;;;4.00;99.90;;;;;;5066533;28;20561;-40
2022/01/14 01:19:35;;;;;;;23.10;15.80;;;4.10;99.90;;;;;;5065910;28;20431;-40
2022/01/14 01:22:01;;;;;;;22.10;15.30;;;4.20;99.90;;;;;;5066346;28;20426;-40
2022/01/14 01:24:27;;;;;;;24.60;15.23;;;4.10;99.90;;;;;;5066380;28;20243;-39
2022/01/14 01:26:53;;;;;;;24.30;15.57;;;4.40;99.90;;;;;;5057211;28;20438;-41
2022/01/14 01:29:43;;;;;;;26.63;16.60;;;4.30;99.90;;;;;;5064625;28;20177;-40
2022/01/14 01:32:09;;;;;;;20.93;15.10;;;4.30;99.90;;;;;;5055672;28;20507;-41
2022/01/14 01:34:36;;;;;;;22.07;15.70;;;4.20;99.90;;;;;;5066408;28;20419;-40
2022/01/14 01:37:04;;;;;;;23.77;15.17;;;4.40;99.90;;;;;;5065994;28;20215;-39
2022/01/14 01:39:33;;;;;;;23.87;14.63;;;4.30;99.90;;;;;;5065774;28;20511;-40
2022/01/14 01:42:09;;;;;;;22.90;15.27;;;4.20;99.90;;;;;;5052885;28;20428;-41
2022/01/14 01:44:38;;;;;;;25.07;15.30;;;4.20;99.90;;;;;;5064799;28;20426;-42
2022/01/14 01:47:04;;;;;;;24.50;15.87;;;4.00;99.90;;;;;;5065967;28;20993;-40
2022/01/14 01:49:34;;;;;;;19.50;13.73;;;4.10;99.90;;;;;;5065878;28;20435;-40
2022/01/14 01:52:01;;;;;;;23.43;14.47;;;4.30;99.90;;;;;;5065691;28;20846;-40
2022/01/14 01:54:28;;;;;;;27.80;14.67;;;4.40;99.90;;;;;;5066174;28;20435;-40
2022/01/14 01:56:55;;;;;;;29.03;15.10;;;4.30;99.90;;;;;;5015754;28;1121849;-41
2022/01/14 01:59:22;;;;;;;20.23;13.17;;;4.30;99.90;;;;;;5066266;28;20193;-40
2022/01/14 02:01:49;;;;;;;25.00;16.43;;;4.30;99.90;;;;;;5066466;28;20484;-40
2022/01/14 02:04:14;;;;;;;21.40;14.23;;;4.10;99.90;;;;;;5065035;28;20495;-41
2022/01/14 02:06:40;;;;;;;20.17;14.03;;;4.20;99.90;;;;;;5065433;28;20420;-40
2022/01/14 02:09:07;;;;;;;24.43;15.40;;;4.00;99.90;;;;;;5067063;28;21134;-40
2022/01/14 02:11:33;;;;;;;20.90;14.70;;;3.90;99.90;;;;;;5058805;28;20471;-39
2022/01/14 02:14:04;;;;;;;21.73;14.40;;;3.90;99.90;;;;;;5062536;28;20877;-40
2022/01/14 02:16:33;;;;;;;24.50;14.27;;;4.10;99.90;;;;;;5066563;28;20261;-39
2022/01/14 02:26:50;;;;;;;24.70;15.87;;;3.80;99.90;;;;;;5060391;28;20812;-43
2022/01/14 02:29:17;;;;;;;20.30;14.03;;;3.90;99.90;;;;;;5063058;28;20498;-39
2022/01/14 02:31:43;;;;;;;19.83;14.37;;;3.70;99.90;;;;;;5075609;28;20509;-39
2022/01/14 02:34:11;;;;;;;23.77;14.93;;;3.50;99.90;;;;;;5085866;28;20422;-42
2022/01/14 02:36:40;;;;;;;23.20;15.57;;;3.80;99.90;;;;;;5086386;28;20461;-40
2022/01/14 02:39:07;;;;;;;21.13;15.43;;;3.40;99.90;;;;;;5086858;28;20442;-40
2022/01/14 02:41:37;;;;;;;23.77;15.53;;;3.50;99.90;;;;;;5076578;28;20436;-42
2022/01/14 02:44:09;;;;;;;26.10;15.70;;;3.30;99.90;;;;;;5064374;28;20426;-40
2022/01/14 02:46:40;;;;;;;24.70;14.70;;;3.10;99.90;;;;;;5069580;28;21004;-40
2022/01/14 02:49:06;;;;;;;20.20;13.97;;;3.30;99.90;;;;;;5070030;28;20836;-40
2022/01/14 02:51:32;;;;;;;20.80;14.37;;;3.20;99.90;;;;;;5069116;28;20728;-40
2022/01/14 02:54:22;;;;;;;20.57;13.30;;;3.20;99.90;;;;;;5069807;28;20589;-39
2022/01/14 02:56:48;;;;;;;21.27;14.27;;;3.40;99.90;;;;;;5063127;28;20471;-40
2022/01/14 02:59:16;;;;;;;21.63;16.30;;;3.60;99.90;;;;;;5068192;28;20420;-40
2022/01/14 03:01:44;;;;;;;22.23;14.27;;;3.60;99.90;;;;;;5068864;28;20424;-40
2022/01/14 03:04:10;;;;;;;22.20;15.70;;;3.60;99.90;;;;;;5068053;28;20838;-41
2022/01/14 03:06:36;;;;;;;24.33;15.83;;;3.40;99.90;;;;;;5069258;28;20423;-39
2022/01/14 03:09:02;;;;;;;30.37;16.70;;;3.50;99.90;;;;;;5069246;28;21002;-40
2022/01/14 03:11:43;;;;;;;25.07;16.03;;;3.40;99.90;;;;;;5061906;28;20244;-41
2022/01/14 03:14:10;;;;;;;24.17;16.23;;;3.40;99.90;;;;;;5068339;28;20529;-40
2022/01/14 03:16:41;;;;;;;23.67;15.93;;;3.50;99.90;;;;;;5068833;28;20490;-40
2022/01/14 03:19:13;;;;;;;25.27;15.33;;;3.60;99.90;;;;;;5069253;28;20480;-40
2022/01/14 03:21:41;;;;;;;28.07;16.60;;;3.50;99.90;;;;;;5068222;28;20435;-39
2022/01/14 03:26:41;;;;;;;24.40;16.80;;;3.50;99.90;;;;;;5064656;28;20437;-41
2022/01/14 03:29:07;;;;;;;23.70;16.40;;;3.40;99.90;;;;;;5063994;28;20428;-41
2022/01/14 03:31:33;;;;;;;23.93;16.27;;;3.40;99.90;;;;;;5066963;28;20427;-40
2022/01/14 03:33:59;;;;;;;23.07;15.77;;;3.50;99.90;;;;;;5068734;28;20446;-40
2022/01/14 03:36:26;;;;;;;27.83;17.87;;;3.30;99.90;;;;;;5068557;28;20205;-40
2022/01/14 03:38:51;;;;;;;23.10;16.53;;;3.50;99.90;;;;;;5069003;28;20777;-40
2022/01/14 03:41:17;;;;;;;25.53;16.30;;;3.60;99.90;;;;;;5065322;28;20424;-40
2022/01/14 03:43:43;;;;;;;24.37;15.57;;;3.60;99.90;;;;;;5062211;28;20596;-40
2022/01/14 03:46:09;;;;;;;27.27;16.63;;;3.50;99.90;;;;;;5068609;28;20193;-40
2022/01/14 03:48:34;;;;;;;24.60;16.33;;;3.50;99.90;;;;;;5068581;28;20278;-41
2022/01/14 03:51:00;;;;;;;22.67;14.87;;;3.50;99.90;;;;;;5067061;28;20423;-40
2022/01/14 03:53:26;;;;;;;20.33;14.90;;;3.50;99.90;;;;;;5068672;28;20236;-40
2022/01/14 03:55:52;;;;;;;30.00;17.00;;;3.70;99.90;;;;;;5068303;28;20308;-39
2022/01/14 03:58:18;;;;;;;24.50;15.87;;;3.70;99.90;;;;;;5053018;28;20573;-40
2022/01/14 04:00:43;;;;;;;24.93;14.70;;;3.70;99.90;;;;;;5067436;28;20181;-40
2022/01/14 04:03:09;;;;;;;25.00;15.57;;;3.70;99.90;;;;;;5068473;28;20180;-41
2022/01/14 04:05:35;;;;;;;24.43;15.57;;;3.60;99.90;;;;;;5066454;28;20181;-39
2022/01/14 04:08:01;;;;;;;20.80;15.00;;;3.50;99.90;;;;;;5068737;28;20613;-40
2022/01/14 04:10:27;;;;;;;29.53;16.23;;;3.70;99.90;;;;;;5067490;28;20427;-40
2022/01/14 04:13:03;;;;;;;28.80;16.67;;;3.50;99.90;;;;;;5058220;28;20527;-41
2022/01/14 04:15:36;;;;;;;21.73;14.73;;;3.40;99.90;;;;;;5067526;28;20825;-39
2022/01/14 04:18:06;;;;;;;24.90;15.50;;;3.30;99.90;;;;;;5061821;28;20779;-40
2022/01/14 04:20:33;;;;;;;25.80;16.00;;;3.50;99.90;;;;;;5067528;28;20419;-40
2022/01/14 04:22:58;;;;;;;25.90;16.93;;;3.30;99.90;;;;;;5068041;28;20419;-41
2022/01/14 04:25:24;;;;;;;24.90;16.73;;;3.50;99.90;;;;;;5067686;28;20910;-40
2022/01/14 04:27:51;;;;;;;25.33;16.77;;;3.40;99.90;;;;;;5057738;28;20436;-39
2022/01/14 04:30:17;;;;;;;25.07;16.20;;;3.50;99.90;;;;;;5067567;28;20426;-39
2022/01/14 04:32:43;;;;;;;26.23;15.80;;;3.50;99.90;;;;;;5062917;28;20940;-39
2022/01/14 04:35:09;;;;;;;23.23;15.37;;;3.30;99.90;;;;;;5067971;28;20424;-42
2022/01/14 04:37:35;;;;;;;23.50;15.27;;;3.40;99.90;;;;;;5067607;28;20221;-42
2022/01/14 04:40:02;;;;;;;26.50;16.50;;;3.40;99.90;;;;;;5065870;28;20249;-40
2022/01/14 04:42:29;;;;;;;23.70;15.90;;;3.00;99.90;;;;;;5061246;28;20478;-42
2022/01/14 04:44:56;;;;;;;27.87;17.87;;;3.10;99.90;;;;;;5061937;28;20430;-40
2022/01/14 04:47:44;;;;;;;33.73;20.27;;;2.80;99.90;;;;;;5067233;28;20516;-40
2022/01/14 04:50:16;;;;;;;34.73;18.77;;;2.80;99.90;;;;;;5082368;28;20435;-41
2022/01/14 04:52:44;;;;;;;32.97;18.67;;;3.00;99.90;;;;;;5067273;28;20436;-40
2022/01/14 04:55:12;;;;;;;37.80;21.50;;;2.70;99.90;;;;;;5067356;28;20504;-43
2022/01/14 04:57:38;;;;;;;34.83;19.60;;;2.80;99.90;;;;;;5061551;28;20483;-40
2022/01/14 05:00:07;;;;;;;34.90;20.70;;;2.80;99.90;;;;;;5061882;28;20864;-39
2022/01/14 05:02:33;;;;;;;37.37;20.83;;;2.50;99.90;;;;;;5066832;28;20434;-40
2022/01/14 05:04:59;;;;;;;34.30;19.13;;;2.70;99.90;;;;;;5065649;28;20424;-39
2022/01/14 05:07:26;;;;;;;39.57;20.17;;;2.60;99.90;;;;;;5067319;28;20189;-40
2022/01/14 05:12:32;;;;;;;43.10;21.57;;;2.40;99.90;;;;;;5061519;28;20447;-40
2022/01/14 05:14:58;;;;;;;32.50;19.70;;;2.40;99.90;;;;;;5063026;28;20415;-40
2022/01/14 05:17:24;;;;;;;37.40;19.40;;;2.40;99.90;;;;;;5067233;28;20932;-40
2022/01/14 05:19:50;;;;;;;44.50;19.50;;;2.20;99.90;;;;;;5066271;28;20783;-40
2022/01/14 05:22:17;;;;;;;27.83;18.60;;;2.50;99.90;;;;;;5067463;28;20434;-40
2022/01/14 05:24:44;;;;;;;33.23;20.13;;;2.20;99.90;;;;;;5066323;28;20450;-40
2022/01/14 05:27:10;;;;;;;27.43;17.73;;;2.20;99.90;;;;;;5063945;28;20438;-42
2022/01/14 05:29:36;;;;;;;32.27;18.63;;;2.30;99.90;;;;;;5059586;28;20431;-39
2022/01/14 05:32:04;;;;;;;31.63;18.10;;;2.40;99.90;;;;;;5066886;28;20185;-40
2022/01/14 05:34:33;;;;;;;26.07;16.67;;;2.40;99.90;;;;;;5066807;28;20459;-40
2022/01/14 05:37:01;;;;;;;30.77;18.20;;;2.20;99.90;;;;;;5066756;28;20451;-39
2022/01/14 05:39:27;;;;;;;27.50;16.90;;;2.40;99.90;;;;;;5066782;28;20510;-40
2022/01/14 05:41:55;;;;;;;26.73;16.90;;;2.00;99.90;;;;;;5066344;28;20411;-40
2022/01/14 05:44:23;;;;;;;32.57;16.67;;;2.20;99.90;;;;;;5054909;28;20443;-40
2022/01/14 05:46:49;;;;;;;30.00;16.57;;;2.30;99.90;;;;;;5066668;28;20415;-40
2022/01/14 05:49:14;;;;;;;26.40;16.50;;;2.10;99.90;;;;;;5066769;28;20514;-39
2022/01/14 05:51:40;;;;;;;23.57;16.10;;;1.90;99.90;;;;;;5065814;28;20746;-40
2022/01/14 05:54:06;;;;;;;28.03;15.50;;;2.10;99.90;;;;;;5066795;28;20307;-41
2022/01/14 05:56:32;;;;;;;24.63;16.73;;;2.20;99.90;;;;;;5066548;28;20485;-39
2022/01/14 05:58:57;;;;;;;27.53;16.20;;;2.10;99.90;;;;;;5057517;28;20661;-40
2022/01/14 06:01:23;;;;;;;22.70;15.57;;;2.10;99.90;;;;;;5065550;28;20193;-40
2022/01/14 06:03:49;;;;;;;23.73;15.53;;;2.20;99.90;;;;;;5066558;28;20185;-40
2022/01/14 06:06:14;;;;;;;24.10;16.10;;;2.00;99.90;;;;;;5064641;28;20674;-41
2022/01/14 06:08:40;;;;;;;31.43;18.27;;;2.30;99.90;;;;;;5063720;28;20196;-40
2022/01/14 06:11:06;;;;;;;25.33;16.30;;;2.10;99.90;;;;;;5059847;28;20193;-40
2022/01/14 06:13:32;;;;;;;26.57;15.90;;;2.20;99.90;;;;;;5052164;28;20217;-40
2022/01/14 06:15:57;;;;;;;22.47;15.53;;;2.00;99.90;;;;;;5070926;28;20212;-40
2022/01/14 06:18:23;;;;;;;25.73;15.73;;;2.10;99.90;;;;;;5069835;28;20200;-39
2022/01/14 06:20:49;;;;;;;23.50;16.40;;;2.00;99.90;;;;;;5069538;28;20663;-40
2022/01/14 06:23:15;;;;;;;24.63;15.67;;;1.80;99.90;;;;;;5069941;28;20208;-39
2022/01/14 06:25:41;;;;;;;26.30;16.20;;;1.90;99.90;;;;;;5070141;28;20189;-41
2022/01/14 06:28:07;;;;;;;27.33;17.30;;;1.60;99.90;;;;;;5073587;28;20449;-39
2022/01/14 06:30:32;;;;;;;25.87;16.23;;;2.10;99.90;;;;;;5067388;28;20462;-41
2022/01/14 06:32:58;;;;;;;24.27;16.50;;;2.20;99.90;;;;;;5068817;28;20237;-40
2022/01/14 06:35:24;;;;;;;25.50;16.80;;;1.90;99.90;;;;;;5070337;28;20196;-40
2022/01/14 06:37:50;;;;;;;24.83;16.40;;;1.90;99.90;;;;;;5069620;28;20428;-42
2022/01/14 06:40:16;;;;;;;27.77;17.70;;;1.80;99.90;;;;;;5069718;28;20189;-40
2022/01/14 06:42:42;;;;;;;30.00;18.60;;;1.80;99.90;;;;;;5065572;28;20473;-39
2022/01/14 06:45:09;;;;;;;27.23;17.43;;;1.80;99.90;;;;;;5060765;28;20453;-40
2022/01/14 06:47:34;;;;;;;24.07;15.63;;;1.90;99.90;;;;;;5069971;28;20208;-39
2022/01/14 06:50:01;;;;;;;21.77;16.73;;;2.10;99.90;;;;;;5068613;28;20918;-39
2022/01/14 06:52:28;;;;;;;23.87;16.60;;;2.00;99.90;;;;;;5069625;28;20204;-40
2022/01/14 06:54:53;;;;;;;25.57;16.50;;;1.90;99.90;;;;;;5069627;28;20426;-40
2022/01/14 06:57:21;;;;;;;28.00;17.97;;;2.20;99.90;;;;;;5069626;28;20478;-39
2022/01/14 06:59:47;;;;;;;24.03;15.67;;;2.30;99.90;;;;;;5059547;28;20628;-40
2022/01/14 07:02:13;;;;;;;25.80;17.10;;;2.40;99.90;;;;;;5069779;28;20433;-40
2022/01/14 07:04:38;;;;;;;21.80;16.37;;;2.40;99.90;;;;;;5067521;28;20602;-43
2022/01/14 07:07:04;;;;;;;24.93;15.77;;;2.40;99.90;;;;;;5069596;28;20223;-39
2022/01/14 07:09:31;;;;;;;24.10;16.53;;;2.30;99.90;;;;;;5066397;28;20236;-40
2022/01/14 07:11:59;;;;;;;26.70;19.97;;;2.50;99.90;;;;;;5065413;28;20189;-40
2022/01/14 07:14:26;;;;;;;27.30;19.37;;;2.60;99.90;;;;;;5058178;28;20454;-39
2022/01/14 07:16:52;;;;;;;23.40;16.53;;;2.40;99.90;;;;;;5069297;28;20455;-39
2022/01/14 07:19:21;;;;;;;22.47;17.60;;;2.50;99.90;;;;;;5067746;28;20999;-40
2022/01/14 07:21:47;;;;;;;25.57;17.07;;;2.70;99.90;;;;;;5068332;28;20473;-40
2022/01/14 07:24:13;;;;;;;23.17;15.30;;;2.50;99.90;;;;;;5069090;28;20459;-39
2022/01/14 07:26:41;;;;;;;25.87;17.40;;;2.40;99.90;;;;;;5054499;28;20565;-39
2022/01/14 07:29:07;;;;;;;26.43;18.00;;;2.50;99.90;;;;;;5063104;28;20444;-39
2022/01/14 07:31:33;;;;;;;28.67;17.37;;;2.40;99.90;;;;;;5067557;28;20506;-40
2022/01/14 07:33:58;;;;;;;27.77;19.00;;;2.30;99.90;;;;;;5067852;28;21000;-40
2022/01/14 07:36:24;;;;;;;25.63;17.67;;;2.60;99.90;;;;;;5067673;28;20471;-40
2022/01/14 07:38:51;;;;;;;27.83;18.83;;;2.50;99.90;;;;;;5067793;28;20261;-41
2022/01/14 07:41:17;;;;;;;21.20;17.03;;;2.50;99.90;;;;;;5067297;28;20268;-41
2022/01/14 07:43:48;;;;;;;28.80;17.30;;;2.60;99.90;;;;;;5059541;28;20484;-42
2022/01/14 07:46:15;;;;;;;29.93;17.37;;;2.40;99.90;;;;;;5066614;28;20465;-39
2022/01/14 07:48:41;;;;;;;25.20;18.83;;;2.70;99.90;;;;;;5068451;28;20436;-40
2022/01/14 07:51:08;;;;;;;24.27;16.53;;;2.40;99.90;;;;;;5067688;28;20430;-39
2022/01/14 07:53:34;;;;;;;28.33;18.40;;;2.60;99.90;;;;;;5068172;28;20526;-39
2022/01/14 07:56:00;;;;;;;27.07;16.13;;;2.80;99.90;;;;;;5069449;28;20605;-40
2022/01/14 07:58:26;;;;;;;25.17;17.07;;;2.70;99.90;;;;;;5062699;28;20186;-39
2022/01/14 08:00:52;;;;;;;27.07;17.20;;;2.80;99.90;;;;;;5063438;28;20894;-40
2022/01/14 08:03:18;;;;;;;21.43;16.30;;;2.60;99.90;;;;;;5067611;28;20434;-40
2022/01/14 08:05:45;;;;;;;24.90;17.13;;;2.80;99.90;;;;;;5072589;28;20185;-41
2022/01/14 08:08:10;;;;;;;26.87;17.47;;;2.80;99.90;;;;;;5084993;28;20434;-41
2022/01/14 08:10:37;;;;;;;27.67;18.40;;;2.70;99.90;;;;;;5086340;28;20924;-40
2022/01/14 08:13:03;;;;;;;24.27;17.07;;;2.60;99.90;;;;;;5077356;28;20192;-39
2022/01/14 08:15:28;;;;;;;24.77;18.60;;;2.70;99.90;;;;;;5057648;28;20467;-40
2022/01/14 08:17:55;;;;;;;26.10;17.03;;;2.60;99.90;;;;;;5068691;28;20533;-41
2022/01/14 08:20:21;;;;;;;26.10;17.80;;;2.80;99.90;;;;;;5067408;28;20597;-41
2022/01/14 08:22:47;;;;;;;24.33;17.47;;;2.80;99.90;;;;;;5068530;28;20427;-40
2022/01/14 08:25:13;;;;;;;27.63;19.27;;;2.70;99.90;;;;;;5068088;28;20419;-40
2022/01/14 08:27:38;;;;;;;30.33;20.50;;;3.00;99.90;;;;;;5067953;28;20686;-39
2022/01/14 08:30:06;;;;;;;29.10;19.70;;;2.70;99.90;;;;;;5047191;28;20438;-39
2022/01/14 08:32:32;;;;;;;31.80;20.70;;;2.80;99.90;;;;;;5066472;28;20193;-40
2022/01/14 08:34:59;;;;;;;31.60;20.30;;;3.00;99.90;;;;;;5046526;28;20423;-39
2022/01/14 08:37:24;;;;;;;30.83;21.03;;;2.80;99.90;;;;;;5058825;28;20882;-40
2022/01/14 08:39:50;;;;;;;30.37;19.13;;;2.90;99.90;;;;;;5074353;28;20913;-40
2022/01/14 08:42:17;;;;;;;32.83;20.07;;;3.10;99.90;;;;;;5081290;28;20187;-40
2022/01/14 08:44:43;;;;;;;36.57;23.33;;;2.90;99.90;;;;;;5059673;28;20208;-40
2022/01/14 08:47:10;;;;;;;34.60;21.17;;;3.00;99.90;;;;;;5068307;28;20485;-40
2022/01/14 08:49:37;;;;;;;37.70;21.97;;;2.90;99.90;;;;;;5065785;28;20542;-39
2022/01/14 08:52:03;;;;;;;45.60;23.20;;;3.10;99.90;;;;;;5066730;28;20419;-40
2022/01/14 08:54:29;;;;;;;44.83;25.50;;;2.90;99.90;;;;;;5067144;28;20444;-40
2022/01/14 08:56:55;;;;;;;39.73;22.33;;;3.00;99.90;;;;;;5067069;28;20937;-39
2022/01/14 08:59:20;;;;;;;40.10;23.70;;;2.90;99.90;;;;;;5056380;28;20196;-41
2022/01/14 09:01:46;;;;;;;43.70;24.93;;;3.00;99.90;;;;;;5066804;28;20238;-40
2022/01/14 09:04:12;;;;;;;46.93;23.50;;;3.00;99.90;;;;;;5065383;28;20208;-40
2022/01/14 09:06:37;;;;;;;45.83;24.97;;;3.00;99.90;;;;;;5066108;28;20223;-40
2022/01/14 09:09:03;;;;;;;45.10;24.50;;;3.20;99.90;;;;;;5065720;28;20431;-40
2022/01/14 09:11:29;;;;;;;46.13;25.43;;;3.20;99.90;;;;;;5067013;28;20217;-40
2022/01/14 09:13:55;;;;;;;49.17;25.43;;;3.00;99.90;;;;;;5061262;28;20217;-40
2022/01/14 09:16:20;;;;;;;50.50;24.30;;;3.20;99.90;;;;;;5059511;28;20213;-40
2022/01/14 09:18:50;;;;;;;51.90;26.80;;;3.30;99.90;;;;;;5066836;28;21052;-40
2022/01/14 09:21:17;;;;;;;45.00;24.73;;;3.20;99.90;;;;;;5066525;28;20243;-40
2022/01/14 09:23:50;;;;;;;43.27;23.60;;;3.20;99.90;;;;;;5066923;28;20419;-42
2022/01/14 09:26:17;;;;;;;44.37;23.97;;;3.10;99.90;;;;;;5065303;28;20427;-39
2022/01/14 09:28:42;;;;;;;53.20;24.07;;;3.20;99.90;;;;;;5063722;28;21391;-42
2022/01/14 09:31:08;;;;;;;47.93;24.10;;;3.10;99.90;;;;;;5054438;28;20447;-39
2022/01/14 09:33:35;;;;;;;53.43;25.60;;;3.40;99.90;;;;;;5066907;28;20189;-44
2022/01/14 09:36:01;;;;;;;51.80;26.90;;;3.30;99.90;;;;;;5047055;28;20209;-42
2022/01/14 09:38:26;;;;;;;69.53;27.20;;;3.20;99.90;;;;;;5066961;28;20708;-41
2022/01/14 09:40:56;;;;;;;59.70;26.80;;;3.30;99.90;;;;;;5064753;28;20419;-40
2022/01/14 09:43:23;;;;;;;65.30;26.50;;;3.10;99.90;;;;;;5045837;28;20209;-40
2022/01/14 09:45:53;;;;;;;66.90;28.10;;;3.10;99.90;;;;;;5053424;28;20909;-40
2022/01/14 09:48:20;;;;;;;61.70;26.30;;;3.00;99.90;;;;;;5066699;28;20435;-41
2022/01/14 09:50:46;;;;;;;48.57;25.50;;;3.00;99.90;;;;;;5068184;28;20435;-40
2022/01/14 09:53:14;;;;;;;48.00;26.60;;;3.10;99.90;;;;;;5070716;28;20506;-40
2022/01/14 09:55:41;;;;;;;64.40;28.60;;;3.30;99.90;;;;;;5070538;28;20426;-43
2022/01/14 09:58:07;;;;;;;52.10;23.73;;;3.30;99.90;;;;;;5069724;28;20805;-41
2022/01/14 10:00:34;;;;;;;49.43;23.83;;;3.40;99.90;;;;;;5061688;28;20458;-41
2022/01/14 10:03:00;;;;;;;46.67;25.63;;;3.10;99.90;;;;;;5070678;28;20205;-39
2022/01/14 10:05:37;;;;;;;52.97;25.10;;;3.50;99.90;;;;;;5068482;28;20988;-39
2022/01/14 10:08:25;;;;;;;45.53;24.43;;;3.50;99.90;;;;;;5070752;28;20181;-39
2022/01/14 10:10:59;;;;;;;44.13;25.27;;;3.60;99.90;;;;;;5056330;28;20477;-39
2022/01/14 10:13:28;;;;;;;49.43;24.70;;;3.90;99.90;;;;;;5071654;28;20523;-40
2022/01/14 10:16:01;;;;;;;40.30;22.50;;;3.80;99.90;;;;;;5060652;28;20463;-40
2022/01/14 10:18:27;;;;;;;43.47;21.73;;;3.60;99.90;;;;;;5067891;28;20426;-39
2022/01/14 10:21:00;;;;;;;48.33;24.17;;;3.80;99.90;;;;;;5070544;28;20785;-40
2022/01/14 10:23:43;;;;;;;49.00;24.60;;;3.80;99.90;;;;;;5081735;28;20570;-39
2022/01/14 10:26:10;;;;;;;47.77;23.77;;;4.10;99.90;;;;;;5064488;28;20996;-40
2022/01/14 10:28:36;;;;;;;43.83;23.43;;;4.10;99.90;;;;;;5070430;28;20419;-39
2022/01/14 10:31:03;;;;;;;47.23;25.20;;;4.00;99.90;;;;;;5059056;28;20943;-39
2022/01/14 10:33:29;;;;;;;52.67;25.47;;;4.10;99.90;;;;;;5070200;28;20193;-39
2022/01/14 10:35:56;;;;;;;44.50;23.70;;;4.00;99.90;;;;;;5070448;28;20845;-39
2022/01/14 10:38:24;;;;;;;50.40;24.30;;;3.90;99.90;;;;;;5070263;28;20426;-40
2022/01/14 10:40:52;;;;;;;42.80;23.90;;;3.90;99.90;;;;;;5069481;28;20434;-39
2022/01/14 10:43:23;;;;;;;46.50;23.53;;;3.90;99.90;;;;;;5070037;28;20427;-39
2022/01/14 10:45:50;;;;;;;42.63;22.20;;;3.90;99.90;;;;;;5057648;28;20783;-40
2022/01/14 10:48:32;;;;;;;47.57;22.53;;;4.10;99.90;;;;;;5070100;28;20419;-40
2022/01/14 10:51:05;;;;;;;41.70;22.53;;;4.00;99.90;;;;;;5067071;28;20818;-39
2022/01/14 10:53:37;;;;;;;47.90;23.33;;;3.90;99.90;;;;;;5070118;28;20407;-40
2022/01/14 10:56:06;;;;;;;47.60;23.80;;;4.00;99.90;;;;;;5069527;28;20487;-39
2022/01/14 10:59:00;;;;;;;48.13;23.40;;;4.20;99.90;;;;;;5070173;28;20808;-40
2022/01/14 11:01:28;;;;;;;48.53;22.93;;;4.10;99.90;;;;;;5057095;28;20443;-40
2022/01/14 11:03:56;;;;;;;38.00;20.20;;;4.10;99.90;;;;;;5070123;28;20454;-40
2022/01/14 11:06:28;;;;;;;42.93;23.70;;;4.30;99.90;;;;;;5068714;28;20419;-43
2022/01/14 11:09:00;;;;;;;41.97;22.40;;;4.20;99.90;;;;;;5069474;28;20820;-40
2022/01/14 11:11:29;;;;;;;54.30;22.90;;;4.30;99.90;;;;;;5069498;28;20514;-40
2022/01/14 11:13:55;;;;;;;41.10;22.33;;;4.30;99.90;;;;;;5075584;28;20513;-40
2022/01/14 11:16:21;;;;;;;38.20;21.60;;;4.30;99.90;;;;;;5059048;28;20472;-40
2022/01/14 11:18:48;;;;;;;39.53;21.33;;;4.40;99.90;;;;;;5068842;28;20964;-40
2022/01/14 11:24:03;;;;;;;42.77;22.60;;;4.30;99.90;;;;;;5067968;28;20510;-40
2022/01/14 11:26:34;;;;;;;38.70;20.47;;;4.30;99.90;;;;;;5069884;28;20514;-40
2022/01/14 11:29:09;;;;;;;38.80;21.07;;;4.50;99.90;;;;;;5069434;28;20896;-40
2022/01/14 11:31:37;;;;;;;40.77;20.60;;;4.30;99.90;;;;;;5056756;28;20523;-40
2022/01/14 11:34:06;;;;;;;38.77;20.10;;;4.60;99.90;;;;;;5069170;28;20427;-39
2022/01/14 11:36:52;;;;;;;32.80;18.43;;;4.40;99.90;;;;;;5069322;28;20451;-39
2022/01/14 11:39:23;;;;;;;31.70;16.67;;;4.30;99.90;;;;;;5068995;28;20415;-39
2022/01/14 11:41:55;;;;;;;36.93;20.03;;;4.40;99.90;;;;;;5068788;28;20451;-40
2022/01/14 11:45:02;;;;;;;39.17;19.33;;;4.50;99.90;;;;;;5068723;28;20410;-40
2022/01/14 11:47:38;;;;;;;35.50;18.90;;;4.40;99.90;;;;;;5060887;28;20444;-41
2022/01/14 11:50:07;;;;;;;42.63;20.47;;;4.50;99.90;;;;;;5067968;28;20419;-40
2022/01/14 11:52:32;;;;;;;41.40;18.17;;;4.30;99.90;;;;;;5069033;28;20766;-43
2022/01/14 11:54:58;;;;;;;35.57;19.20;;;4.50;99.90;;;;;;5068941;28;20422;-39
2022/01/14 11:57:45;;;;;;;33.43;18.33;;;4.30;99.90;;;;;;5068961;28;20628;-40
2022/01/14 12:00:30;;;;;;;36.80;18.50;;;4.60;99.90;;;;;;5049426;28;20177;-40
2022/01/14 12:03:11;;;;;;;42.17;20.50;;;4.80;99.90;;;;;;5062474;28;20427;-40
2022/01/14 12:05:38;;;;;;;41.80;19.17;;;4.50;99.90;;;;;;5065437;28;20427;-40
2022/01/14 12:08:05;;;;;;;46.30;19.83;;;4.70;99.90;;;;;;5067562;28;20693;-40
2022/01/14 12:10:46;;;;;;;43.10;21.47;;;4.40;99.90;;;;;;5067959;28;20734;-39
2022/01/14 12:13:24;;;;;;;39.60;19.53;;;4.70;99.90;;;;;;5068992;28;20794;-40
2022/01/14 12:15:59;;;;;;;46.67;22.03;;;4.40;99.90;;;;;;5073467;28;20471;-40
2022/01/14 12:18:59;;;;;;;39.97;20.43;;;4.60;99.90;;;;;;5065684;28;20429;-40
2022/01/14 12:21:50;;;;;;;44.23;21.77;;;4.60;99.90;;;;;;5063080;28;20488;-39
2022/01/14 12:24:18;;;;;;;39.17;20.47;;;4.80;99.90;;;;;;5068410;28;20431;-40
2022/01/14 12:27:08;;;;;;;40.97;19.50;;;4.70;99.90;;;;;;5068268;28;20423;-40
2022/01/14 12:29:39;;;;;;;35.47;18.83;;;4.80;99.90;;;;;;5060784;28;20929;-40
2022/01/14 12:32:06;;;;;;;40.93;19.23;;;4.50;99.90;;;;;;5061940;28;20936;-41
2022/01/14 12:34:34;;;;;;;40.40;19.40;;;4.70;99.90;;;;;;5069138;28;20437;-40
2022/01/14 12:37:01;;;;;;;34.33;18.27;;;4.40;99.90;;;;;;5088832;28;20612;-42
2022/01/14 12:39:27;;;;;;;35.87;20.50;;;4.70;99.90;;;;;;5081996;28;20779;-40
2022/01/14 12:41:54;;;;;;;40.70;19.13;;;4.70;99.90;;;;;;5087762;28;20422;-40
2022/01/14 12:44:23;;;;;;;29.33;16.57;;;4.60;99.90;;;;;;5086309;28;20679;-39
2022/01/14 12:47:10;;;;;;;34.50;17.93;;;4.70;99.90;;;;;;5064073;28;20435;-39
2022/01/14 12:49:40;;;;;;;30.50;17.10;;;4.60;99.90;;;;;;5066406;28;20473;-40
2022/01/14 12:52:15;;;;;;;31.67;18.43;;;4.80;99.90;;;;;;5068294;28;20451;-41
2022/01/14 12:54:43;;;;;;;34.03;17.10;;;4.80;99.90;;;;;;5065544;28;20789;-40
2022/01/14 12:57:14;;;;;;;32.40;17.83;;;4.90;99.90;;;;;;5066330;28;20470;-40
2022/01/14 12:59:42;;;;;;;32.10;18.60;;;4.90;99.90;;;;;;5066668;28;20428;-40
2022/01/14 13:02:08;;;;;;;32.77;18.20;;;4.70;99.90;;;;;;5055734;28;20794;-40
2022/01/14 13:04:34;;;;;;;35.97;20.17;;;4.90;99.90;;;;;;5064906;28;20431;-40
2022/01/14 13:07:03;;;;;;;40.07;20.57;;;4.70;99.90;;;;;;5079844;28;20834;-41